sensor_id;sensor_type;location;lat;lon;timestamp;P1;durP1;ratioP1;P2;durP2;ratioP2
11685;SDS011;5899;51.282;6.094;2023-06-26T00:01:03;8.32;;;7.38;;
11685;SDS011;5899;51.282;6.094;2023-06-26T00:03:31;7.90;;;7.10;;
11685;SDS011;5899;51.282;6.094;2023-06-26T00:05:58;7.78;;;6.65;;
11685;SDS011;5899;51.282;6.094;2023-06-26T00:08:25;8.05;;;7.22;;
11685;SDS011;5899;51.282;6.094;2023-06-26T00:10:52;8.50;;;7.50;;
11685;SDS011;5899;51.282;6.094;2023-06-26T00:13:18;8.50;;;7.60;;
11685;SDS011;5899;51.282;6.094;2023-06-26T00:15:46;7.97;;;7.22;;
11685;SDS011;5899;51.282;6.094;2023-06-26T00:18:13;9.25;;;7.07;;
11685;SDS011;5899;51.282;6.094;2023-06-26T00:20:39;8.18;;;7.38;;
11685;SDS011;5899;51.282;6.094;2023-06-26T00:23:05;8.10;;;6.95;;
11685;SDS011;5899;51.282;6.094;2023-06-26T00:25:33;9.32;;;7.32;;
11685;SDS011;5899;51.282;6.094;2023-06-26T00:27:59;8.45;;;6.78;;
11685;SDS011;5899;51.282;6.094;2023-06-26T00:30:26;9.03;;;6.93;;
11685;SDS011;5899;51.282;6.094;2023-06-26T00:32:54;8.70;;;7.37;;
11685;SDS011;5899;51.282;6.094;2023-06-26T00:35:20;9.45;;;7.40;;
11685;SDS011;5899;51.282;6.094;2023-06-26T00:37:47;7.95;;;7.13;;
11685;SDS011;5899;51.282;6.094;2023-06-26T00:40:13;7.35;;;6.65;;
11685;SDS011;5899;51.282;6.094;2023-06-26T00:42:40;7.93;;;7.10;;
11685;SDS011;5899;51.282;6.094;2023-06-26T00:45:06;7.93;;;7.13;;
11685;SDS011;5899;51.282;6.094;2023-06-26T00:47:33;7.47;;;6.65;;
11685;SDS011;5899;51.282;6.094;2023-06-26T00:50:00;7.63;;;6.70;;
11685;SDS011;5899;51.282;6.094;2023-06-26T00:52:27;7.55;;;6.80;;
11685;SDS011;5899;51.282;6.094;2023-06-26T00:54:54;6.93;;;6.22;;
11685;SDS011;5899;51.282;6.094;2023-06-26T00:57:21;7.07;;;6.38;;
11685;SDS011;5899;51.282;6.094;2023-06-26T00:59:48;7.13;;;6.32;;
11685;SDS011;5899;51.282;6.094;2023-06-26T01:02:14;7.38;;;6.30;;
11685;SDS011;5899;51.282;6.094;2023-06-26T01:04:45;8.27;;;6.47;;
11685;SDS011;5899;51.282;6.094;2023-06-26T01:07:15;6.30;;;5.70;;
11685;SDS011;5899;51.282;6.094;2023-06-26T01:09:43;6.80;;;6.13;;
11685;SDS011;5899;51.282;6.094;2023-06-26T01:12:10;7.05;;;5.82;;
11685;SDS011;5899;51.282;6.094;2023-06-26T01:14:37;7.05;;;6.07;;
11685;SDS011;5899;51.282;6.094;2023-06-26T01:17:03;6.25;;;5.53;;
11685;SDS011;5899;51.282;6.094;2023-06-26T01:19:31;6.65;;;6.05;;
11685;SDS011;5899;51.282;6.094;2023-06-26T01:22:02;5.75;;;5.25;;
11685;SDS011;5899;51.282;6.094;2023-06-26T01:24:33;5.70;;;5.10;;
11685;SDS011;5899;51.282;6.094;2023-06-26T01:27:03;7.20;;;5.53;;
11685;SDS011;5899;51.282;6.094;2023-06-26T01:29:32;6.75;;;5.65;;
11685;SDS011;5899;51.282;6.094;2023-06-26T01:31:59;6.93;;;5.75;;
11685;SDS011;5899;51.282;6.094;2023-06-26T01:34:26;6.10;;;5.50;;
11685;SDS011;5899;51.282;6.094;2023-06-26T01:36:53;8.50;;;6.22;;
11685;SDS011;5899;51.282;6.094;2023-06-26T01:39:19;7.50;;;6.07;;
11685;SDS011;5899;51.282;6.094;2023-06-26T01:41:46;6.55;;;5.85;;
11685;SDS011;5899;51.282;6.094;2023-06-26T01:44:20;6.40;;;5.53;;
11685;SDS011;5899;51.282;6.094;2023-06-26T01:46:52;6.60;;;5.82;;
11685;SDS011;5899;51.282;6.094;2023-06-26T01:49:21;6.65;;;5.90;;
11685;SDS011;5899;51.282;6.094;2023-06-26T01:51:53;6.50;;;5.22;;
11685;SDS011;5899;51.282;6.094;2023-06-26T01:54:24;6.38;;;5.78;;
11685;SDS011;5899;51.282;6.094;2023-06-26T01:56:52;5.93;;;5.25;;
11685;SDS011;5899;51.282;6.094;2023-06-26T01:59:21;5.93;;;5.25;;
11685;SDS011;5899;51.282;6.094;2023-06-26T02:01:48;7.75;;;5.63;;
11685;SDS011;5899;51.282;6.094;2023-06-26T02:04:14;6.35;;;5.47;;
11685;SDS011;5899;51.282;6.094;2023-06-26T02:06:41;6.80;;;5.75;;
11685;SDS011;5899;51.282;6.094;2023-06-26T02:09:10;6.25;;;5.65;;
11685;SDS011;5899;51.282;6.094;2023-06-26T02:11:37;5.78;;;5.28;;
11685;SDS011;5899;51.282;6.094;2023-06-26T02:14:03;6.53;;;5.20;;
11685;SDS011;5899;51.282;6.094;2023-06-26T02:16:31;6.30;;;4.97;;
11685;SDS011;5899;51.282;6.094;2023-06-26T02:18:58;9.20;;;5.20;;
11685;SDS011;5899;51.282;6.094;2023-06-26T02:21:24;6.38;;;5.75;;
11685;SDS011;5899;51.282;6.094;2023-06-26T02:23:51;8.32;;;5.70;;
11685;SDS011;5899;51.282;6.094;2023-06-26T02:26:17;7.80;;;5.68;;
11685;SDS011;5899;51.282;6.094;2023-06-26T02:28:44;5.47;;;4.97;;
11685;SDS011;5899;51.282;6.094;2023-06-26T02:31:10;6.03;;;5.40;;
11685;SDS011;5899;51.282;6.094;2023-06-26T02:33:38;6.45;;;5.25;;
11685;SDS011;5899;51.282;6.094;2023-06-26T02:36:05;5.90;;;5.00;;
11685;SDS011;5899;51.282;6.094;2023-06-26T02:38:31;5.90;;;5.18;;
11685;SDS011;5899;51.282;6.094;2023-06-26T02:40:57;6.10;;;5.38;;
11685;SDS011;5899;51.282;6.094;2023-06-26T02:43:24;5.70;;;5.03;;
11685;SDS011;5899;51.282;6.094;2023-06-26T02:45:50;6.70;;;5.18;;
11685;SDS011;5899;51.282;6.094;2023-06-26T02:48:19;6.70;;;5.15;;
11685;SDS011;5899;51.282;6.094;2023-06-26T02:50:47;6.03;;;5.18;;
11685;SDS011;5899;51.282;6.094;2023-06-26T02:53:13;6.68;;;5.43;;
11685;SDS011;5899;51.282;6.094;2023-06-26T02:55:41;6.60;;;5.20;;
11685;SDS011;5899;51.282;6.094;2023-06-26T02:58:07;5.97;;;5.00;;
11685;SDS011;5899;51.282;6.094;2023-06-26T03:00:33;6.15;;;5.50;;
11685;SDS011;5899;51.282;6.094;2023-06-26T03:03:00;7.53;;;5.55;;
11685;SDS011;5899;51.282;6.094;2023-06-26T03:05:27;5.80;;;5.10;;
11685;SDS011;5899;51.282;6.094;2023-06-26T03:07:54;6.72;;;4.95;;
11685;SDS011;5899;51.282;6.094;2023-06-26T03:10:21;6.82;;;4.65;;
11685;SDS011;5899;51.282;6.094;2023-06-26T03:12:47;6.88;;;4.25;;
11685;SDS011;5899;51.282;6.094;2023-06-26T03:15:14;5.47;;;4.30;;
11685;SDS011;5899;51.282;6.094;2023-06-26T03:17:40;5.07;;;4.35;;
11685;SDS011;5899;51.282;6.094;2023-06-26T03:20:07;5.03;;;4.47;;
11685;SDS011;5899;51.282;6.094;2023-06-26T03:22:35;5.10;;;4.60;;
11685;SDS011;5899;51.282;6.094;2023-06-26T03:25:03;5.13;;;4.60;;
11685;SDS011;5899;51.282;6.094;2023-06-26T03:27:30;4.65;;;4.15;;
11685;SDS011;5899;51.282;6.094;2023-06-26T03:29:57;5.68;;;4.60;;
11685;SDS011;5899;51.282;6.094;2023-06-26T03:32:23;4.30;;;3.90;;
11685;SDS011;5899;51.282;6.094;2023-06-26T03:34:50;5.32;;;4.07;;
11685;SDS011;5899;51.282;6.094;2023-06-26T03:37:18;7.80;;;4.00;;
11685;SDS011;5899;51.282;6.094;2023-06-26T03:39:44;4.38;;;3.80;;
11685;SDS011;5899;51.282;6.094;2023-06-26T03:42:12;4.40;;;3.97;;
11685;SDS011;5899;51.282;6.094;2023-06-26T03:44:40;5.10;;;3.88;;
11685;SDS011;5899;51.282;6.094;2023-06-26T03:47:07;5.40;;;4.00;;
11685;SDS011;5899;51.282;6.094;2023-06-26T03:49:33;4.50;;;3.67;;
11685;SDS011;5899;51.282;6.094;2023-06-26T03:51:59;5.28;;;3.80;;
11685;SDS011;5899;51.282;6.094;2023-06-26T03:54:26;6.75;;;3.80;;
11685;SDS011;5899;51.282;6.094;2023-06-26T03:56:52;5.05;;;3.70;;
11685;SDS011;5899;51.282;6.094;2023-06-26T03:59:23;3.90;;;3.50;;
11685;SDS011;5899;51.282;6.094;2023-06-26T04:01:49;5.30;;;3.33;;
11685;SDS011;5899;51.282;6.094;2023-06-26T04:04:16;4.80;;;3.75;;
11685;SDS011;5899;51.282;6.094;2023-06-26T04:06:42;4.80;;;3.30;;
11685;SDS011;5899;51.282;6.094;2023-06-26T04:09:09;5.23;;;3.90;;
11685;SDS011;5899;51.282;6.094;2023-06-26T04:11:35;4.80;;;3.55;;
11685;SDS011;5899;51.282;6.094;2023-06-26T04:14:02;4.38;;;3.28;;
11685;SDS011;5899;51.282;6.094;2023-06-26T04:16:30;4.13;;;3.10;;
11685;SDS011;5899;51.282;6.094;2023-06-26T04:18:56;3.70;;;3.20;;
11685;SDS011;5899;51.282;6.094;2023-06-26T04:21:23;5.07;;;3.67;;
11685;SDS011;5899;51.282;6.094;2023-06-26T04:23:50;4.53;;;3.27;;
11685;SDS011;5899;51.282;6.094;2023-06-26T04:26:16;3.70;;;3.20;;
11685;SDS011;5899;51.282;6.094;2023-06-26T04:28:43;3.63;;;3.10;;
11685;SDS011;5899;51.282;6.094;2023-06-26T04:31:09;3.50;;;3.13;;
11685;SDS011;5899;51.282;6.094;2023-06-26T04:33:37;3.35;;;2.95;;
11685;SDS011;5899;51.282;6.094;2023-06-26T04:36:04;5.55;;;3.60;;
11685;SDS011;5899;51.282;6.094;2023-06-26T04:38:31;5.00;;;3.42;;
11685;SDS011;5899;51.282;6.094;2023-06-26T04:40:57;6.10;;;3.30;;
11685;SDS011;5899;51.282;6.094;2023-06-26T04:43:26;4.60;;;3.23;;
11685;SDS011;5899;51.282;6.094;2023-06-26T04:45:53;4.95;;;3.00;;
11685;SDS011;5899;51.282;6.094;2023-06-26T04:48:19;3.20;;;2.72;;
11685;SDS011;5899;51.282;6.094;2023-06-26T04:50:48;6.05;;;3.05;;
11685;SDS011;5899;51.282;6.094;2023-06-26T04:53:18;4.82;;;3.20;;
11685;SDS011;5899;51.282;6.094;2023-06-26T04:55:45;3.40;;;2.95;;
11685;SDS011;5899;51.282;6.094;2023-06-26T04:58:11;4.82;;;3.35;;
11685;SDS011;5899;51.282;6.094;2023-06-26T05:00:38;3.93;;;3.53;;
11685;SDS011;5899;51.282;6.094;2023-06-26T05:03:07;5.40;;;3.70;;
11685;SDS011;5899;51.282;6.094;2023-06-26T05:05:33;4.57;;;2.97;;
11685;SDS011;5899;51.282;6.094;2023-06-26T05:08:12;7.50;;;3.30;;
11685;SDS011;5899;51.282;6.094;2023-06-26T05:10:39;5.15;;;3.60;;
11685;SDS011;5899;51.282;6.094;2023-06-26T05:13:05;4.78;;;3.30;;
11685;SDS011;5899;51.282;6.094;2023-06-26T05:15:32;5.70;;;3.10;;
11685;SDS011;5899;51.282;6.094;2023-06-26T05:17:58;4.63;;;3.20;;
11685;SDS011;5899;51.282;6.094;2023-06-26T05:20:25;4.45;;;2.92;;
11685;SDS011;5899;51.282;6.094;2023-06-26T05:22:51;4.20;;;2.85;;
11685;SDS011;5899;51.282;6.094;2023-06-26T05:25:19;5.30;;;3.05;;
11685;SDS011;5899;51.282;6.094;2023-06-26T05:27:47;4.65;;;3.33;;
11685;SDS011;5899;51.282;6.094;2023-06-26T05:30:14;5.38;;;3.55;;
11685;SDS011;5899;51.282;6.094;2023-06-26T05:32:41;6.55;;;3.30;;
11685;SDS011;5899;51.282;6.094;2023-06-26T05:35:08;6.88;;;3.20;;
11685;SDS011;5899;51.282;6.094;2023-06-26T05:37:35;5.15;;;2.97;;
11685;SDS011;5899;51.282;6.094;2023-06-26T05:40:02;4.10;;;3.53;;
11685;SDS011;5899;51.282;6.094;2023-06-26T05:42:31;6.13;;;3.10;;
11685;SDS011;5899;51.282;6.094;2023-06-26T05:44:58;3.63;;;3.05;;
11685;SDS011;5899;51.282;6.094;2023-06-26T05:47:24;4.10;;;3.25;;
11685;SDS011;5899;51.282;6.094;2023-06-26T05:49:51;5.68;;;3.22;;
11685;SDS011;5899;51.282;6.094;2023-06-26T05:52:17;4.28;;;3.53;;
11685;SDS011;5899;51.282;6.094;2023-06-26T05:54:44;6.90;;;3.60;;
11685;SDS011;5899;51.282;6.094;2023-06-26T05:57:13;5.82;;;3.67;;
11685;SDS011;5899;51.282;6.094;2023-06-26T05:59:42;6.70;;;3.90;;
11685;SDS011;5899;51.282;6.094;2023-06-26T06:02:09;6.35;;;3.17;;
11685;SDS011;5899;51.282;6.094;2023-06-26T06:04:35;6.15;;;3.70;;
11685;SDS011;5899;51.282;6.094;2023-06-26T06:07:02;4.93;;;3.30;;
11685;SDS011;5899;51.282;6.094;2023-06-26T06:09:29;7.17;;;3.43;;
11685;SDS011;5899;51.282;6.094;2023-06-26T06:11:55;4.72;;;3.25;;
11685;SDS011;5899;51.282;6.094;2023-06-26T06:14:22;6.97;;;3.28;;
11685;SDS011;5899;51.282;6.094;2023-06-26T06:16:49;4.60;;;3.53;;
11685;SDS011;5899;51.282;6.094;2023-06-26T06:19:16;6.93;;;3.80;;
11685;SDS011;5899;51.282;6.094;2023-06-26T06:21:45;5.03;;;3.53;;
11685;SDS011;5899;51.282;6.094;2023-06-26T06:24:11;4.85;;;2.97;;
11685;SDS011;5899;51.282;6.094;2023-06-26T06:26:38;5.78;;;2.90;;
11685;SDS011;5899;51.282;6.094;2023-06-26T06:29:04;6.78;;;3.35;;
11685;SDS011;5899;51.282;6.094;2023-06-26T06:31:31;4.40;;;2.70;;
11685;SDS011;5899;51.282;6.094;2023-06-26T06:33:58;6.90;;;3.25;;
11685;SDS011;5899;51.282;6.094;2023-06-26T06:36:25;4.45;;;2.50;;
11685;SDS011;5899;51.282;6.094;2023-06-26T06:38:53;4.57;;;2.50;;
11685;SDS011;5899;51.282;6.094;2023-06-26T06:41:20;7.32;;;2.95;;
11685;SDS011;5899;51.282;6.094;2023-06-26T06:43:46;5.70;;;3.30;;
11685;SDS011;5899;51.282;6.094;2023-06-26T06:46:13;8.77;;;3.28;;
11685;SDS011;5899;51.282;6.094;2023-06-26T06:48:39;5.05;;;2.83;;
11685;SDS011;5899;51.282;6.094;2023-06-26T06:51:07;4.47;;;2.75;;
11685;SDS011;5899;51.282;6.094;2023-06-26T06:53:33;7.35;;;3.03;;
11685;SDS011;5899;51.282;6.094;2023-06-26T06:56:00;5.43;;;2.92;;
11685;SDS011;5899;51.282;6.094;2023-06-26T06:58:26;8.43;;;3.17;;
11685;SDS011;5899;51.282;6.094;2023-06-26T07:00:53;6.10;;;2.75;;
11685;SDS011;5899;51.282;6.094;2023-06-26T07:03:19;5.63;;;2.60;;
11685;SDS011;5899;51.282;6.094;2023-06-26T07:05:47;6.43;;;2.95;;
11685;SDS011;5899;51.282;6.094;2023-06-26T07:08:14;12.00;;;3.13;;
11685;SDS011;5899;51.282;6.094;2023-06-26T07:10:42;6.45;;;2.92;;
11685;SDS011;5899;51.282;6.094;2023-06-26T07:13:09;5.35;;;2.90;;
11685;SDS011;5899;51.282;6.094;2023-06-26T07:15:35;4.72;;;3.03;;
11685;SDS011;5899;51.282;6.094;2023-06-26T07:18:02;4.73;;;3.00;;
11685;SDS011;5899;51.282;6.094;2023-06-26T07:20:28;9.40;;;3.38;;
11685;SDS011;5899;51.282;6.094;2023-06-26T07:22:55;3.80;;;3.13;;
11685;SDS011;5899;51.282;6.094;2023-06-26T07:25:23;5.38;;;3.40;;
11685;SDS011;5899;51.282;6.094;2023-06-26T07:27:49;5.77;;;3.03;;
11685;SDS011;5899;51.282;6.094;2023-06-26T07:30:16;5.60;;;2.60;;
11685;SDS011;5899;51.282;6.094;2023-06-26T07:32:44;5.43;;;2.30;;
11685;SDS011;5899;51.282;6.094;2023-06-26T07:35:11;5.70;;;3.00;;
11685;SDS011;5899;51.282;6.094;2023-06-26T07:37:40;3.80;;;2.75;;
11685;SDS011;5899;51.282;6.094;2023-06-26T07:40:07;6.13;;;2.50;;
11685;SDS011;5899;51.282;6.094;2023-06-26T07:42:35;4.43;;;2.60;;
11685;SDS011;5899;51.282;6.094;2023-06-26T07:45:02;4.90;;;2.63;;
11685;SDS011;5899;51.282;6.094;2023-06-26T07:47:34;5.80;;;2.75;;
11685;SDS011;5899;51.282;6.094;2023-06-26T07:50:01;7.78;;;3.28;;
11685;SDS011;5899;51.282;6.094;2023-06-26T07:52:27;5.97;;;3.10;;
11685;SDS011;5899;51.282;6.094;2023-06-26T07:54:55;5.40;;;2.67;;
11685;SDS011;5899;51.282;6.094;2023-06-26T07:57:21;4.72;;;2.50;;
11685;SDS011;5899;51.282;6.094;2023-06-26T07:59:49;4.38;;;2.55;;
11685;SDS011;5899;51.282;6.094;2023-06-26T08:02:16;5.30;;;2.70;;
11685;SDS011;5899;51.282;6.094;2023-06-26T08:04:43;3.92;;;2.50;;
11685;SDS011;5899;51.282;6.094;2023-06-26T08:07:09;4.88;;;2.30;;
11685;SDS011;5899;51.282;6.094;2023-06-26T08:09:35;5.68;;;2.45;;
11685;SDS011;5899;51.282;6.094;2023-06-26T08:12:02;4.68;;;2.55;;
11685;SDS011;5899;51.282;6.094;2023-06-26T08:14:29;4.87;;;2.53;;
11685;SDS011;5899;51.282;6.094;2023-06-26T08:16:59;5.10;;;2.20;;
11685;SDS011;5899;51.282;6.094;2023-06-26T08:19:25;3.75;;;2.17;;
11685;SDS011;5899;51.282;6.094;2023-06-26T08:21:52;4.68;;;2.70;;
11685;SDS011;5899;51.282;6.094;2023-06-26T08:24:18;2.85;;;2.20;;
11685;SDS011;5899;51.282;6.094;2023-06-26T08:26:45;3.35;;;2.22;;
11685;SDS011;5899;51.282;6.094;2023-06-26T08:29:14;4.47;;;2.50;;
11685;SDS011;5899;51.282;6.094;2023-06-26T08:31:41;5.53;;;2.35;;
11685;SDS011;5899;51.282;6.094;2023-06-26T08:34:09;3.70;;;2.03;;
11685;SDS011;5899;51.282;6.094;2023-06-26T08:36:35;4.00;;;2.15;;
11685;SDS011;5899;51.282;6.094;2023-06-26T08:39:02;4.75;;;2.33;;
11685;SDS011;5899;51.282;6.094;2023-06-26T08:41:30;3.08;;;2.35;;
11685;SDS011;5899;51.282;6.094;2023-06-26T08:43:56;3.97;;;2.40;;
11685;SDS011;5899;51.282;6.094;2023-06-26T08:46:23;4.15;;;2.60;;
11685;SDS011;5899;51.282;6.094;2023-06-26T08:48:52;3.47;;;2.30;;
11685;SDS011;5899;51.282;6.094;2023-06-26T08:51:23;2.57;;;1.90;;
11685;SDS011;5899;51.282;6.094;2023-06-26T08:53:55;5.25;;;2.72;;
11685;SDS011;5899;51.282;6.094;2023-06-26T08:56:22;6.10;;;2.58;;
11685;SDS011;5899;51.282;6.094;2023-06-26T08:58:50;6.15;;;2.70;;
11685;SDS011;5899;51.282;6.094;2023-06-26T09:01:18;4.35;;;2.25;;
11685;SDS011;5899;51.282;6.094;2023-06-26T09:03:46;3.35;;;2.15;;
11685;SDS011;5899;51.282;6.094;2023-06-26T09:06:13;2.75;;;1.60;;
11685;SDS011;5899;51.282;6.094;2023-06-26T09:08:40;2.88;;;2.00;;
11685;SDS011;5899;51.282;6.094;2023-06-26T09:11:07;3.53;;;1.85;;
11685;SDS011;5899;51.282;6.094;2023-06-26T09:13:33;4.00;;;2.17;;
11685;SDS011;5899;51.282;6.094;2023-06-26T09:16:03;3.03;;;1.90;;
11685;SDS011;5899;51.282;6.094;2023-06-26T09:18:30;3.03;;;1.88;;
11685;SDS011;5899;51.282;6.094;2023-06-26T09:20:57;3.17;;;2.13;;
11685;SDS011;5899;51.282;6.094;2023-06-26T09:23:24;3.53;;;1.90;;
11685;SDS011;5899;51.282;6.094;2023-06-26T09:25:52;2.28;;;1.73;;
11685;SDS011;5899;51.282;6.094;2023-06-26T09:28:19;1.77;;;1.52;;
11685;SDS011;5899;51.282;6.094;2023-06-26T09:30:51;3.45;;;1.70;;
11685;SDS011;5899;51.282;6.094;2023-06-26T09:33:18;2.05;;;1.70;;
11685;SDS011;5899;51.282;6.094;2023-06-26T09:35:46;1.77;;;1.50;;
11685;SDS011;5899;51.282;6.094;2023-06-26T09:38:14;2.63;;;1.85;;
11685;SDS011;5899;51.282;6.094;2023-06-26T09:40:43;2.85;;;1.58;;
11685;SDS011;5899;51.282;6.094;2023-06-26T09:43:12;2.22;;;1.60;;
11685;SDS011;5899;51.282;6.094;2023-06-26T09:45:39;2.07;;;1.60;;
11685;SDS011;5899;51.282;6.094;2023-06-26T09:48:06;2.22;;;1.58;;
11685;SDS011;5899;51.282;6.094;2023-06-26T09:50:34;3.80;;;1.23;;
11685;SDS011;5899;51.282;6.094;2023-06-26T09:53:06;2.10;;;1.40;;
11685;SDS011;5899;51.282;6.094;2023-06-26T09:55:34;2.20;;;1.47;;
11685;SDS011;5899;51.282;6.094;2023-06-26T09:58:00;1.98;;;1.40;;
11685;SDS011;5899;51.282;6.094;2023-06-26T10:00:30;2.90;;;1.77;;
11685;SDS011;5899;51.282;6.094;2023-06-26T10:02:56;1.45;;;1.30;;
11685;SDS011;5899;51.282;6.094;2023-06-26T10:05:22;4.63;;;1.60;;
11685;SDS011;5899;51.282;6.094;2023-06-26T10:07:49;1.50;;;1.30;;
11685;SDS011;5899;51.282;6.094;2023-06-26T10:10:18;1.60;;;1.20;;
11685;SDS011;5899;51.282;6.094;2023-06-26T10:12:45;1.52;;;1.10;;
11685;SDS011;5899;51.282;6.094;2023-06-26T10:15:14;2.43;;;1.10;;
11685;SDS011;5899;51.282;6.094;2023-06-26T10:17:43;1.45;;;1.35;;
11685;SDS011;5899;51.282;6.094;2023-06-26T10:20:12;1.73;;;1.35;;
11685;SDS011;5899;51.282;6.094;2023-06-26T10:22:41;1.33;;;1.20;;
11685;SDS011;5899;51.282;6.094;2023-06-26T10:25:08;1.90;;;1.20;;
11685;SDS011;5899;51.282;6.094;2023-06-26T10:27:37;3.58;;;1.45;;
11685;SDS011;5899;51.282;6.094;2023-06-26T10:30:05;1.58;;;1.25;;
11685;SDS011;5899;51.282;6.094;2023-06-26T10:32:35;1.25;;;1.15;;
11685;SDS011;5899;51.282;6.094;2023-06-26T10:35:05;2.20;;;1.50;;
11685;SDS011;5899;51.282;6.094;2023-06-26T10:37:41;5.17;;;1.53;;
11685;SDS011;5899;51.282;6.094;2023-06-26T10:40:08;2.28;;;1.52;;
11685;SDS011;5899;51.282;6.094;2023-06-26T10:42:35;2.20;;;1.38;;
11685;SDS011;5899;51.282;6.094;2023-06-26T10:45:08;1.50;;;1.00;;
11685;SDS011;5899;51.282;6.094;2023-06-26T10:47:35;1.63;;;1.20;;
11685;SDS011;5899;51.282;6.094;2023-06-26T10:50:18;1.75;;;1.10;;
11685;SDS011;5899;51.282;6.094;2023-06-26T10:52:45;1.30;;;1.20;;
11685;SDS011;5899;51.282;6.094;2023-06-26T10:55:13;3.70;;;1.30;;
11685;SDS011;5899;51.282;6.094;2023-06-26T10:57:39;1.52;;;1.30;;
11685;SDS011;5899;51.282;6.094;2023-06-26T11:00:11;3.78;;;1.20;;
11685;SDS011;5899;51.282;6.094;2023-06-26T11:02:48;1.73;;;1.00;;
11685;SDS011;5899;51.282;6.094;2023-06-26T11:05:24;2.90;;;1.20;;
11685;SDS011;5899;51.282;6.094;2023-06-26T11:08:05;1.33;;;1.23;;
11685;SDS011;5899;51.282;6.094;2023-06-26T11:13:16;1.50;;;1.33;;
11685;SDS011;5899;51.282;6.094;2023-06-26T11:15:43;1.10;;;0.93;;
11685;SDS011;5899;51.282;6.094;2023-06-26T11:18:10;1.33;;;0.90;;
11685;SDS011;5899;51.282;6.094;2023-06-26T11:20:38;1.20;;;1.10;;
11685;SDS011;5899;51.282;6.094;2023-06-26T11:23:05;1.45;;;0.90;;
11685;SDS011;5899;51.282;6.094;2023-06-26T11:25:33;1.85;;;1.00;;
11685;SDS011;5899;51.282;6.094;2023-06-26T11:28:00;1.60;;;1.02;;
11685;SDS011;5899;51.282;6.094;2023-06-26T11:30:27;1.00;;;0.90;;
11685;SDS011;5899;51.282;6.094;2023-06-26T11:33:01;1.23;;;1.05;;
11685;SDS011;5899;51.282;6.094;2023-06-26T11:35:28;3.53;;;1.30;;
11685;SDS011;5899;51.282;6.094;2023-06-26T11:37:57;1.60;;;1.30;;
11685;SDS011;5899;51.282;6.094;2023-06-26T11:40:25;0.90;;;0.90;;
11685;SDS011;5899;51.282;6.094;2023-06-26T11:42:52;2.97;;;1.25;;
11685;SDS011;5899;51.282;6.094;2023-06-26T11:45:19;1.30;;;1.08;;
11685;SDS011;5899;51.282;6.094;2023-06-26T11:47:45;1.50;;;1.13;;
11685;SDS011;5899;51.282;6.094;2023-06-26T11:50:14;1.15;;;1.05;;
11685;SDS011;5899;51.282;6.094;2023-06-26T11:52:41;2.25;;;1.10;;
11685;SDS011;5899;51.282;6.094;2023-06-26T11:55:09;1.35;;;1.08;;
11685;SDS011;5899;51.282;6.094;2023-06-26T11:57:36;1.52;;;1.10;;
11685;SDS011;5899;51.282;6.094;2023-06-26T12:00:11;2.28;;;1.15;;
11685;SDS011;5899;51.282;6.094;2023-06-26T12:02:38;1.38;;;1.17;;
11685;SDS011;5899;51.282;6.094;2023-06-26T12:05:05;2.05;;;1.00;;
11685;SDS011;5899;51.282;6.094;2023-06-26T12:07:32;2.20;;;1.33;;
11685;SDS011;5899;51.282;6.094;2023-06-26T12:09:59;1.20;;;0.90;;
11685;SDS011;5899;51.282;6.094;2023-06-26T12:12:27;1.77;;;1.00;;
11685;SDS011;5899;51.282;6.094;2023-06-26T12:14:54;2.78;;;1.98;;
11685;SDS011;5899;51.282;6.094;2023-06-26T12:17:22;2.43;;;1.10;;
11685;SDS011;5899;51.282;6.094;2023-06-26T12:19:50;1.33;;;1.00;;
11685;SDS011;5899;51.282;6.094;2023-06-26T12:22:16;0.87;;;0.87;;
11685;SDS011;5899;51.282;6.094;2023-06-26T12:24:43;1.17;;;0.80;;
11685;SDS011;5899;51.282;6.094;2023-06-26T12:27:10;2.63;;;1.25;;
11685;SDS011;5899;51.282;6.094;2023-06-26T12:29:39;2.65;;;1.23;;
11685;SDS011;5899;51.282;6.094;2023-06-26T12:32:09;1.13;;;1.02;;
11685;SDS011;5899;51.282;6.094;2023-06-26T12:34:36;1.23;;;1.10;;
11685;SDS011;5899;51.282;6.094;2023-06-26T12:37:03;1.63;;;1.10;;
11685;SDS011;5899;51.282;6.094;2023-06-26T12:39:44;1.70;;;1.02;;
11685;SDS011;5899;51.282;6.094;2023-06-26T12:42:12;1.65;;;1.13;;
11685;SDS011;5899;51.282;6.094;2023-06-26T12:44:40;1.40;;;1.00;;
11685;SDS011;5899;51.282;6.094;2023-06-26T12:47:07;1.27;;;0.95;;
11685;SDS011;5899;51.282;6.094;2023-06-26T12:49:35;2.22;;;1.50;;
11685;SDS011;5899;51.282;6.094;2023-06-26T12:52:03;1.80;;;1.10;;
11685;SDS011;5899;51.282;6.094;2023-06-26T12:54:29;1.20;;;1.10;;
11685;SDS011;5899;51.282;6.094;2023-06-26T12:56:56;2.60;;;1.05;;
11685;SDS011;5899;51.282;6.094;2023-06-26T12:59:23;1.23;;;1.00;;
11685;SDS011;5899;51.282;6.094;2023-06-26T13:01:51;2.25;;;1.20;;
11685;SDS011;5899;51.282;6.094;2023-06-26T13:04:18;2.63;;;1.20;;
11685;SDS011;5899;51.282;6.094;2023-06-26T13:06:44;1.87;;;1.10;;
11685;SDS011;5899;51.282;6.094;2023-06-26T13:09:11;1.98;;;1.40;;
11685;SDS011;5899;51.282;6.094;2023-06-26T13:11:37;1.80;;;1.38;;
11685;SDS011;5899;51.282;6.094;2023-06-26T13:14:04;2.17;;;1.17;;
11685;SDS011;5899;51.282;6.094;2023-06-26T13:16:30;1.75;;;1.17;;
11685;SDS011;5899;51.282;6.094;2023-06-26T13:18:59;1.40;;;1.20;;
11685;SDS011;5899;51.282;6.094;2023-06-26T13:21:28;1.25;;;1.00;;
11685;SDS011;5899;51.282;6.094;2023-06-26T13:23:55;3.67;;;1.30;;
11685;SDS011;5899;51.282;6.094;2023-06-26T13:26:21;1.20;;;1.10;;
11685;SDS011;5899;51.282;6.094;2023-06-26T13:28:48;2.10;;;1.30;;
11685;SDS011;5899;51.282;6.094;2023-06-26T13:31:14;2.37;;;1.53;;
11685;SDS011;5899;51.282;6.094;2023-06-26T13:33:41;1.93;;;1.10;;
11685;SDS011;5899;51.282;6.094;2023-06-26T13:36:09;1.30;;;1.20;;
11685;SDS011;5899;51.282;6.094;2023-06-26T13:38:35;3.33;;;1.27;;
11685;SDS011;5899;51.282;6.094;2023-06-26T13:41:02;1.23;;;1.00;;
11685;SDS011;5899;51.282;6.094;2023-06-26T13:43:28;2.42;;;1.13;;
11685;SDS011;5899;51.282;6.094;2023-06-26T13:45:55;1.50;;;1.07;;
11685;SDS011;5899;51.282;6.094;2023-06-26T13:48:22;1.27;;;1.17;;
11685;SDS011;5899;51.282;6.094;2023-06-26T13:50:49;2.25;;;1.60;;
11685;SDS011;5899;51.282;6.094;2023-06-26T13:53:17;2.45;;;1.33;;
11685;SDS011;5899;51.282;6.094;2023-06-26T13:55:44;1.50;;;1.25;;
11685;SDS011;5899;51.282;6.094;2023-06-26T13:58:10;1.27;;;1.17;;
11685;SDS011;5899;51.282;6.094;2023-06-26T14:00:38;1.35;;;1.25;;
11685;SDS011;5899;51.282;6.094;2023-06-26T14:03:09;1.25;;;1.00;;
11685;SDS011;5899;51.282;6.094;2023-06-26T14:05:36;2.25;;;1.10;;
11685;SDS011;5899;51.282;6.094;2023-06-26T14:08:03;2.33;;;1.20;;
11685;SDS011;5899;51.282;6.094;2023-06-26T14:10:31;2.42;;;1.20;;
11685;SDS011;5899;51.282;6.094;2023-06-26T14:12:59;1.98;;;1.17;;
11685;SDS011;5899;51.282;6.094;2023-06-26T14:15:26;2.17;;;1.30;;
11685;SDS011;5899;51.282;6.094;2023-06-26T14:17:52;1.42;;;1.10;;
11685;SDS011;5899;51.282;6.094;2023-06-26T14:20:21;1.30;;;1.13;;
11685;SDS011;5899;51.282;6.094;2023-06-26T14:22:47;1.20;;;1.10;;
11685;SDS011;5899;51.282;6.094;2023-06-26T14:25:15;1.38;;;1.17;;
11685;SDS011;5899;51.282;6.094;2023-06-26T14:27:42;1.60;;;1.50;;
11685;SDS011;5899;51.282;6.094;2023-06-26T14:30:09;1.70;;;1.10;;
11685;SDS011;5899;51.282;6.094;2023-06-26T14:32:36;1.27;;;1.17;;
11685;SDS011;5899;51.282;6.094;2023-06-26T14:35:02;1.27;;;1.15;;
11685;SDS011;5899;51.282;6.094;2023-06-26T14:37:29;1.42;;;1.20;;
11685;SDS011;5899;51.282;6.094;2023-06-26T14:39:56;1.52;;;1.05;;
11685;SDS011;5899;51.282;6.094;2023-06-26T14:42:24;1.30;;;1.10;;
11685;SDS011;5899;51.282;6.094;2023-06-26T14:44:52;2.20;;;1.45;;
11685;SDS011;5899;51.282;6.094;2023-06-26T14:47:18;1.65;;;1.40;;
11685;SDS011;5899;51.282;6.094;2023-06-26T14:49:44;1.10;;;1.00;;
11685;SDS011;5899;51.282;6.094;2023-06-26T14:52:11;1.63;;;1.13;;
11685;SDS011;5899;51.282;6.094;2023-06-26T14:54:39;1.20;;;1.10;;
11685;SDS011;5899;51.282;6.094;2023-06-26T14:57:08;1.63;;;1.20;;
11685;SDS011;5899;51.282;6.094;2023-06-26T14:59:35;1.23;;;0.95;;
11685;SDS011;5899;51.282;6.094;2023-06-26T15:02:04;2.05;;;1.20;;
11685;SDS011;5899;51.282;6.094;2023-06-26T15:04:31;1.10;;;1.00;;